Terminal Aerodrome Forecast
Issued by NWS Wilmington, OH

Current Version | Previous Version | Text Only | Print | Product List | Glossary Off
Versions: 1 2 3 4 5 6 7 8 9 10 11 12 13 14 15 16 17 18 19 20 21 22 23 24 25 26 27 28 29 30 31

000
FTUS41 KILN 140859 AAB
TAFDAY
TAF AMD
KDAY 140859Z 1409/1506 06006KT P6SM VCSH SCT020 OVC035
     FM141200 07003KT 5SM BR VCSH OVC008
     FM141600 07004KT 5SM -FZRA BR OVC008
     FM141800 31003KT P6SM VCSH OVC018
     FM142000 33004KT P6SM OVC018
     FM150000 35005KT P6SM OVC010=

USA.gov is the U.S. government's official web portal to all federal, state and local government web resources and services.